Phillips, Maine
Current Conditions -  °F | °C
As of 10:55 AM on Tuesday 21 Oct 2014 (Local Time) from KWVL Reporting Station
Overcast Overcast  
Wind Chill: 46°   Ceiling: 5500
Heat Index: 48°   Visibility: 10mi
Dew Point: 37°   Wind: 5mph
Humidity: 66%   Direction: 20°NNE
Pressure: 30.06"   Gusts: NA
Location:  44.82°N, 70.34°W
Report Text: KWVL 211455Z 02004KT 10SM FEW032 BKN055 OVC075 09/03 A3006 RMK AO1 52014
Loading
Personal Weather Stations






























Interactive Weather Map
Tropical Storm Tracking
New forecast layout! Learn more

10-Day Weather Forecast

Advertisements
Track Severe Weather on mobile